sensor_id;sensor_type;location;lat;lon;timestamp;pressure;altitude;pressure_sealevel;temperature;humidity
56052;BME280;41919;42.648;23.384;2023-01-30T00:00:51;94817.50;;;-0.20;83.74
56052;BME280;41919;42.648;23.384;2023-01-30T00:03:17;94830.94;;;-0.07;83.23
56052;BME280;41919;42.648;23.384;2023-01-30T00:05:43;94746.22;;;-0.47;82.82
56052;BME280;41919;42.648;23.384;2023-01-30T00:08:08;94748.56;;;-0.34;82.54
56052;BME280;41919;42.648;23.384;2023-01-30T00:10:33;94807.56;;;0.06;82.64
56052;BME280;41919;42.648;23.384;2023-01-30T00:12:59;94794.53;;;-0.12;82.32
56052;BME280;41919;42.648;23.384;2023-01-30T00:15:24;94792.13;;;-0.13;82.45
56052;BME280;41919;42.648;23.384;2023-01-30T00:17:50;94739.31;;;-0.47;81.88
56052;BME280;41919;42.648;23.384;2023-01-30T00:20:15;94751.38;;;-0.37;81.89
56052;BME280;41919;42.648;23.384;2023-01-30T00:22:41;94816.06;;;-0.03;82.46
56052;BME280;41919;42.648;23.384;2023-01-30T00:25:06;94809.72;;;0.01;82.20
56052;BME280;41919;42.648;23.384;2023-01-30T00:27:32;94817.19;;;0.04;82.00
56052;BME280;41919;42.648;23.384;2023-01-30T00:29:57;94808.25;;;-0.02;82.63
56052;BME280;41919;42.648;23.384;2023-01-30T00:32:23;94805.78;;;-0.13;82.02
56052;BME280;41919;42.648;23.384;2023-01-30T00:34:50;94781.09;;;-0.45;83.06
56052;BME280;41919;42.648;23.384;2023-01-30T00:37:16;94817.00;;;-0.04;82.97
56052;BME280;41919;42.648;23.384;2023-01-30T00:39:42;94782.34;;;-0.29;82.59
56052;BME280;41919;42.648;23.384;2023-01-30T00:42:08;94789.13;;;-0.28;83.23
56052;BME280;41919;42.648;23.384;2023-01-30T00:44:52;94793.69;;;-0.32;84.29
56052;BME280;41919;42.648;23.384;2023-01-30T00:47:36;94777.19;;;-0.29;83.84
56052;BME280;41919;42.648;23.384;2023-01-30T00:50:01;94727.13;;;-0.64;84.22
56052;BME280;41919;42.648;23.384;2023-01-30T00:52:27;94799.63;;;-0.31;84.72
56052;BME280;41919;42.648;23.384;2023-01-30T00:54:52;94765.09;;;-0.58;85.17
56052;BME280;41919;42.648;23.384;2023-01-30T00:57:18;94786.09;;;-0.43;85.67
56052;BME280;41919;42.648;23.384;2023-01-30T00:59:43;94725.25;;;-0.93;85.77
56052;BME280;41919;42.648;23.384;2023-01-30T01:02:09;94784.44;;;-0.54;85.89
56052;BME280;41919;42.648;23.384;2023-01-30T01:04:34;94777.13;;;-0.58;85.63
56052;BME280;41919;42.648;23.384;2023-01-30T01:07:11;94702.72;;;-0.89;85.48
56052;BME280;41919;42.648;23.384;2023-01-30T01:09:36;94785.00;;;-0.41;84.68
56052;BME280;41919;42.648;23.384;2023-01-30T01:12:02;94771.09;;;-0.48;84.29
56052;BME280;41919;42.648;23.384;2023-01-30T01:14:28;94768.19;;;-0.64;85.36
56052;BME280;41919;42.648;23.384;2023-01-30T01:16:53;94784.28;;;-0.62;85.54
56052;BME280;41919;42.648;23.384;2023-01-30T01:19:19;94719.41;;;-1.05;85.66
56052;BME280;41919;42.648;23.384;2023-01-30T01:21:44;94710.56;;;-1.22;86.90
56052;BME280;41919;42.648;23.384;2023-01-30T01:24:12;94773.94;;;-0.82;87.21
56052;BME280;41919;42.648;23.384;2023-01-30T01:26:38;94700.06;;;-1.19;86.85
56052;BME280;41919;42.648;23.384;2023-01-30T01:29:04;94743.09;;;-0.91;86.72
56052;BME280;41919;42.648;23.384;2023-01-30T01:31:29;94786.00;;;-0.72;86.99
56052;BME280;41919;42.648;23.384;2023-01-30T01:33:55;94693.28;;;-1.20;86.72
56052;BME280;41919;42.648;23.384;2023-01-30T01:36:21;94692.78;;;-1.13;86.31
56052;BME280;41919;42.648;23.384;2023-01-30T01:38:46;94770.06;;;-0.66;86.73
56052;BME280;41919;42.648;23.384;2023-01-30T01:41:13;94762.91;;;-0.72;86.12
56052;BME280;41919;42.648;23.384;2023-01-30T01:46:32;94777.44;;;-0.83;87.13
56052;BME280;41919;42.648;23.384;2023-01-30T01:49:01;94770.53;;;-0.92;87.23
56052;BME280;41919;42.648;23.384;2023-01-30T01:51:34;94702.34;;;-1.15;86.67
56052;BME280;41919;42.648;23.384;2023-01-30T01:54:11;94757.00;;;-0.94;86.91
56052;BME280;41919;42.648;23.384;2023-01-30T01:56:41;94785.31;;;-0.74;86.77
56052;BME280;41919;42.648;23.384;2023-01-30T01:59:23;94712.59;;;-1.15;86.60
56052;BME280;41919;42.648;23.384;2023-01-30T02:01:52;94762.94;;;-0.93;86.81
56052;BME280;41919;42.648;23.384;2023-01-30T02:04:19;94773.69;;;-0.78;87.69
56052;BME280;41919;42.648;23.384;2023-01-30T02:07:05;94773.50;;;-0.87;87.15
56052;BME280;41919;42.648;23.384;2023-01-30T02:09:30;94769.72;;;-0.83;86.52
56052;BME280;41919;42.648;23.384;2023-01-30T02:11:58;94771.31;;;-0.91;87.11
56052;BME280;41919;42.648;23.384;2023-01-30T02:14:27;94762.59;;;-1.10;87.22
56052;BME280;41919;42.648;23.384;2023-01-30T02:16:52;94697.66;;;-1.41;87.47
56052;BME280;41919;42.648;23.384;2023-01-30T02:25:28;94773.53;;;-0.77;86.77
56052;BME280;41919;42.648;23.384;2023-01-30T02:28:26;94778.97;;;-0.70;86.34
56052;BME280;41919;42.648;23.384;2023-01-30T02:34:29;94769.81;;;-0.63;85.91
56052;BME280;41919;42.648;23.384;2023-01-30T02:42:36;94749.88;;;-0.50;84.57
56052;BME280;41919;42.648;23.384;2023-01-30T02:45:31;94755.25;;;-0.53;84.66
56052;BME280;41919;42.648;23.384;2023-01-30T02:48:23;94762.19;;;-0.44;84.18
56052;BME280;41919;42.648;23.384;2023-01-30T02:50:58;94750.13;;;-0.53;84.58
56052;BME280;41919;42.648;23.384;2023-01-30T02:53:30;94743.53;;;-0.46;84.19
56052;BME280;41919;42.648;23.384;2023-01-30T02:55:56;94759.53;;;-0.23;83.73
56052;BME280;41919;42.648;23.384;2023-01-30T02:58:23;94756.41;;;-0.26;83.47
56052;BME280;41919;42.648;23.384;2023-01-30T03:09:35;94767.03;;;-0.41;82.40
56052;BME280;41919;42.648;23.384;2023-01-30T03:15:11;94751.63;;;-0.41;82.51
56052;BME280;41919;42.648;23.384;2023-01-30T03:17:41;94750.28;;;-0.35;82.16
56052;BME280;41919;42.648;23.384;2023-01-30T03:20:09;94747.03;;;-0.37;82.57
56052;BME280;41919;42.648;23.384;2023-01-30T03:22:34;94745.16;;;-0.35;82.58
56052;BME280;41919;42.648;23.384;2023-01-30T03:25:00;94736.41;;;-0.32;82.77
56052;BME280;41919;42.648;23.384;2023-01-30T03:27:26;94695.53;;;-0.55;82.44
56052;BME280;41919;42.648;23.384;2023-01-30T03:29:51;94724.78;;;-0.17;81.55
56052;BME280;41919;42.648;23.384;2023-01-30T03:32:17;94669.88;;;-0.55;81.03
56052;BME280;41919;42.648;23.384;2023-01-30T03:34:42;94726.41;;;-0.16;80.35
56052;BME280;41919;42.648;23.384;2023-01-30T03:37:08;94722.22;;;-0.17;80.11
56052;BME280;41919;42.648;23.384;2023-01-30T03:39:33;94721.53;;;-0.19;80.12
56052;BME280;41919;42.648;23.384;2023-01-30T03:41:59;94717.34;;;-0.20;80.51
56052;BME280;41919;42.648;23.384;2023-01-30T03:44:25;94716.13;;;-0.26;80.69
56052;BME280;41919;42.648;23.384;2023-01-30T03:46:50;94726.25;;;-0.24;80.40
56052;BME280;41919;42.648;23.384;2023-01-30T03:49:15;94641.31;;;-0.81;80.13
56052;BME280;41919;42.648;23.384;2023-01-30T03:51:42;94709.63;;;-0.40;80.54
56052;BME280;41919;42.648;23.384;2023-01-30T03:54:07;94722.03;;;-0.45;81.00
56052;BME280;41919;42.648;23.384;2023-01-30T03:56:33;94714.59;;;-0.48;80.94
56052;BME280;41919;42.648;23.384;2023-01-30T03:58:58;94635.63;;;-0.85;81.09
56052;BME280;41919;42.648;23.384;2023-01-30T04:01:23;94716.22;;;-0.37;81.07
56052;BME280;41919;42.648;23.384;2023-01-30T04:03:49;94705.16;;;-0.37;81.52
56052;BME280;41919;42.648;23.384;2023-01-30T04:06:14;94703.00;;;-0.42;81.57
56052;BME280;41919;42.648;23.384;2023-01-30T04:08:40;94716.66;;;-0.42;81.90
56052;BME280;41919;42.648;23.384;2023-01-30T04:11:05;94687.97;;;-0.56;82.19
56052;BME280;41919;42.648;23.384;2023-01-30T04:13:31;94642.94;;;-0.80;82.16
56052;BME280;41919;42.648;23.384;2023-01-30T04:16:17;94679.81;;;-0.71;82.38
56052;BME280;41919;42.648;23.384;2023-01-30T04:18:43;94714.19;;;-0.53;82.71
56052;BME280;41919;42.648;23.384;2023-01-30T04:21:09;94715.41;;;-0.47;82.93
56052;BME280;41919;42.648;23.384;2023-01-30T04:23:34;94614.66;;;-1.09;82.65
56052;BME280;41919;42.648;23.384;2023-01-30T04:26:00;94641.50;;;-1.04;82.82
56052;BME280;41919;42.648;23.384;2023-01-30T04:28:25;94718.78;;;-0.47;82.65
56052;BME280;41919;42.648;23.384;2023-01-30T04:30:53;94651.66;;;-0.92;82.79
56052;BME280;41919;42.648;23.384;2023-01-30T04:33:20;94702.56;;;-0.57;83.13
56052;BME280;41919;42.648;23.384;2023-01-30T04:35:56;94716.09;;;-0.45;83.27
56052;BME280;41919;42.648;23.384;2023-01-30T04:38:23;94711.88;;;-0.46;83.22
56052;BME280;41919;42.648;23.384;2023-01-30T04:40:54;94711.63;;;-0.53;83.07
56052;BME280;41919;42.648;23.384;2023-01-30T04:43:20;94704.97;;;-0.65;83.42
56052;BME280;41919;42.648;23.384;2023-01-30T04:45:47;94709.59;;;-0.59;83.81
56052;BME280;41919;42.648;23.384;2023-01-30T04:48:13;94635.72;;;-0.96;83.52
56052;BME280;41919;42.648;23.384;2023-01-30T04:50:40;94690.41;;;-0.55;83.54
56052;BME280;41919;42.648;23.384;2023-01-30T04:53:06;94700.38;;;-0.52;83.82
56052;BME280;41919;42.648;23.384;2023-01-30T04:55:32;94706.88;;;-0.57;83.50
56052;BME280;41919;42.648;23.384;2023-01-30T04:57:57;94628.75;;;-0.84;83.44
56052;BME280;41919;42.648;23.384;2023-01-30T05:00:23;94630.09;;;-0.80;83.29
56052;BME280;41919;42.648;23.384;2023-01-30T05:02:48;94678.50;;;-0.56;83.76
56052;BME280;41919;42.648;23.384;2023-01-30T05:05:14;94693.66;;;-0.43;84.00
56052;BME280;41919;42.648;23.384;2023-01-30T05:07:39;94666.34;;;-0.54;84.21
56052;BME280;41919;42.648;23.384;2023-01-30T05:10:05;94687.59;;;-0.32;83.34
56052;BME280;41919;42.648;23.384;2023-01-30T05:12:31;94702.06;;;-0.31;82.42
56052;BME280;41919;42.648;23.384;2023-01-30T05:14:56;94693.38;;;-0.50;83.68
56052;BME280;41919;42.648;23.384;2023-01-30T05:17:21;94611.72;;;-0.95;84.04
56052;BME280;41919;42.648;23.384;2023-01-30T05:19:47;94694.34;;;-0.31;83.96
56052;BME280;41919;42.648;23.384;2023-01-30T05:22:12;94639.31;;;-0.68;83.36
56052;BME280;41919;42.648;23.384;2023-01-30T05:24:38;94624.69;;;-0.77;83.39
56052;BME280;41919;42.648;23.384;2023-01-30T05:27:03;94683.38;;;-0.43;83.43
56052;BME280;41919;42.648;23.384;2023-01-30T05:29:29;94702.47;;;-0.36;83.37
56052;BME280;41919;42.648;23.384;2023-01-30T05:31:54;94705.28;;;-0.29;83.78
56052;BME280;41919;42.648;23.384;2023-01-30T05:34:20;94675.66;;;-0.53;84.16
56052;BME280;41919;42.648;23.384;2023-01-30T05:36:46;94700.13;;;-0.58;84.55
56052;BME280;41919;42.648;23.384;2023-01-30T05:39:11;94688.47;;;-0.72;85.30
56052;BME280;41919;42.648;23.384;2023-01-30T05:41:37;94655.47;;;-0.87;85.64
56052;BME280;41919;42.648;23.384;2023-01-30T05:44:02;94693.66;;;-0.53;86.07
56052;BME280;41919;42.648;23.384;2023-01-30T05:46:28;94698.53;;;-0.50;85.89
56052;BME280;41919;42.648;23.384;2023-01-30T05:48:53;94699.56;;;-0.62;86.13
56052;BME280;41919;42.648;23.384;2023-01-30T05:51:21;94703.47;;;-0.68;86.85
56052;BME280;41919;42.648;23.384;2023-01-30T05:53:47;94632.34;;;-1.06;87.06
56052;BME280;41919;42.648;23.384;2023-01-30T05:56:13;94705.19;;;-0.88;88.33
56052;BME280;41919;42.648;23.384;2023-01-30T05:58:38;94707.72;;;-0.97;88.89
56052;BME280;41919;42.648;23.384;2023-01-30T06:01:06;94703.13;;;-0.94;88.65
56052;BME280;41919;42.648;23.384;2023-01-30T06:03:33;94714.50;;;-0.77;88.85
56052;BME280;41919;42.648;23.384;2023-01-30T06:06:01;94699.50;;;-0.82;91.48
56052;BME280;41919;42.648;23.384;2023-01-30T06:08:26;94693.31;;;-0.79;91.80
56052;BME280;41919;42.648;23.384;2023-01-30T06:10:52;94711.75;;;-0.54;93.40
56052;BME280;41919;42.648;23.384;2023-01-30T06:13:17;94705.53;;;-0.52;89.65
56052;BME280;41919;42.648;23.384;2023-01-30T06:15:43;94710.63;;;-0.62;88.66
56052;BME280;41919;42.648;23.384;2023-01-30T06:18:09;94706.38;;;-0.42;89.79
56052;BME280;41919;42.648;23.384;2023-01-30T06:20:34;94704.06;;;-0.35;90.77
56052;BME280;41919;42.648;23.384;2023-01-30T06:22:59;94696.38;;;-0.35;89.11
56052;BME280;41919;42.648;23.384;2023-01-30T06:25:25;94691.91;;;-0.23;87.22
56052;BME280;41919;42.648;23.384;2023-01-30T06:27:51;94677.72;;;-0.27;85.99
56052;BME280;41919;42.648;23.384;2023-01-30T06:30:17;94633.38;;;-0.58;85.62
56052;BME280;41919;42.648;23.384;2023-01-30T06:32:42;94692.75;;;-0.32;86.03
56052;BME280;41919;42.648;23.384;2023-01-30T06:35:08;94694.47;;;-0.43;86.77
56052;BME280;41919;42.648;23.384;2023-01-30T06:37:33;94680.28;;;-0.47;87.00
56052;BME280;41919;42.648;23.384;2023-01-30T06:39:59;94674.31;;;-0.67;86.88
56052;BME280;41919;42.648;23.384;2023-01-30T06:42:24;94684.69;;;-0.68;86.97
56052;BME280;41919;42.648;23.384;2023-01-30T06:44:50;94697.22;;;-0.75;87.74
56052;BME280;41919;42.648;23.384;2023-01-30T06:47:15;94704.03;;;-0.64;87.89
56052;BME280;41919;42.648;23.384;2023-01-30T06:49:41;94592.13;;;-1.46;87.67
56052;BME280;41919;42.648;23.384;2023-01-30T06:52:06;94626.97;;;-1.34;88.57
56052;BME280;41919;42.648;23.384;2023-01-30T06:54:32;94703.94;;;-0.93;88.84
56052;BME280;41919;42.648;23.384;2023-01-30T06:56:57;94696.25;;;-0.93;88.93
56052;BME280;41919;42.648;23.384;2023-01-30T06:59:23;94694.38;;;-0.82;88.89
56052;BME280;41919;42.648;23.384;2023-01-30T07:01:48;94638.88;;;-1.23;89.07
56052;BME280;41919;42.648;23.384;2023-01-30T07:04:13;94644.28;;;-1.26;88.95
56052;BME280;41919;42.648;23.384;2023-01-30T07:06:39;94642.41;;;-1.24;89.15
56052;BME280;41919;42.648;23.384;2023-01-30T07:09:04;94716.59;;;-0.61;88.19
56052;BME280;41919;42.648;23.384;2023-01-30T07:11:30;94696.16;;;-0.72;87.41
56052;BME280;41919;42.648;23.384;2023-01-30T07:13:55;94699.50;;;-0.91;87.97
56052;BME280;41919;42.648;23.384;2023-01-30T07:16:21;94705.47;;;-0.71;88.00
56052;BME280;41919;42.648;23.384;2023-01-30T07:18:54;94723.34;;;-0.60;88.36
56052;BME280;41919;42.648;23.384;2023-01-30T07:21:21;94714.38;;;-0.75;88.48
56052;BME280;41919;42.648;23.384;2023-01-30T07:23:47;94708.56;;;-0.77;88.70
56052;BME280;41919;42.648;23.384;2023-01-30T07:26:12;94716.44;;;-0.69;88.22
56052;BME280;41919;42.648;23.384;2023-01-30T07:28:38;94621.34;;;-1.28;88.22
56052;BME280;41919;42.648;23.384;2023-01-30T07:31:03;94713.59;;;-0.66;88.05
56052;BME280;41919;42.648;23.384;2023-01-30T07:33:29;94655.97;;;-1.03;87.95
56052;BME280;41919;42.648;23.384;2023-01-30T07:35:54;94739.78;;;-0.32;87.85
56052;BME280;41919;42.648;23.384;2023-01-30T07:38:20;94730.59;;;-0.34;87.55
56052;BME280;41919;42.648;23.384;2023-01-30T07:40:45;94645.75;;;-0.83;87.06
56052;BME280;41919;42.648;23.384;2023-01-30T07:43:12;94729.66;;;-0.14;86.46
56052;BME280;41919;42.648;23.384;2023-01-30T07:45:46;94751.59;;;0.10;92.21
56052;BME280;41919;42.648;23.384;2023-01-30T07:48:17;94719.53;;;-0.06;87.55
56052;BME280;41919;42.648;23.384;2023-01-30T07:50:43;94658.50;;;-0.43;86.91
56052;BME280;41919;42.648;23.384;2023-01-30T07:53:12;94656.38;;;-0.37;85.98
56052;BME280;41919;42.648;23.384;2023-01-30T07:55:38;94649.22;;;-0.44;84.32
56052;BME280;41919;42.648;23.384;2023-01-30T07:58:03;94662.06;;;-0.24;84.71
56052;BME280;41919;42.648;23.384;2023-01-30T08:00:29;94710.19;;;0.13;83.49
56052;BME280;41919;42.648;23.384;2023-01-30T08:02:55;94708.69;;;0.20;83.70
56052;BME280;41919;42.648;23.384;2023-01-30T08:05:21;94704.38;;;0.11;83.85
56052;BME280;41919;42.648;23.384;2023-01-30T08:07:46;94621.38;;;-0.19;83.10
56052;BME280;41919;42.648;23.384;2023-01-30T08:10:12;94687.19;;;0.21;82.75
56052;BME280;41919;42.648;23.384;2023-01-30T08:12:39;94653.00;;;-0.09;83.24
56052;BME280;41919;42.648;23.384;2023-01-30T08:15:05;94691.63;;;0.29;81.85
56052;BME280;41919;42.648;23.384;2023-01-30T08:17:31;94646.09;;;0.02;81.58
56052;BME280;41919;42.648;23.384;2023-01-30T08:19:56;94620.81;;;-0.13;81.87
56052;BME280;41919;42.648;23.384;2023-01-30T08:22:21;94686.34;;;0.40;80.94
56052;BME280;41919;42.648;23.384;2023-01-30T08:24:47;94705.84;;;0.43;80.87
56052;BME280;41919;42.648;23.384;2023-01-30T08:27:12;94709.19;;;0.53;81.09
56052;BME280;41919;42.648;23.384;2023-01-30T08:29:39;94705.81;;;0.62;79.81
56052;BME280;41919;42.648;23.384;2023-01-30T08:32:04;94645.53;;;0.17;80.15
56052;BME280;41919;42.648;23.384;2023-01-30T08:34:30;94689.69;;;0.60;79.54
56052;BME280;41919;42.648;23.384;2023-01-30T08:36:56;94695.50;;;0.62;79.22
56052;BME280;41919;42.648;23.384;2023-01-30T08:39:21;94631.59;;;0.20;78.91
56052;BME280;41919;42.648;23.384;2023-01-30T08:41:46;94689.06;;;0.48;79.60
56052;BME280;41919;42.648;23.384;2023-01-30T08:44:12;94691.97;;;0.63;78.91
56052;BME280;41919;42.648;23.384;2023-01-30T08:46:38;94681.69;;;0.63;78.40
56052;BME280;41919;42.648;23.384;2023-01-30T08:49:04;94612.44;;;0.42;77.81
56052;BME280;41919;42.648;23.384;2023-01-30T08:51:30;94676.22;;;0.86;78.37
56052;BME280;41919;42.648;23.384;2023-01-30T08:53:56;94620.22;;;0.70;76.47
56052;BME280;41919;42.648;23.384;2023-01-30T08:56:21;94599.78;;;0.68;75.96
56052;BME280;41919;42.648;23.384;2023-01-30T08:58:47;94660.31;;;1.00;75.94
56052;BME280;41919;42.648;23.384;2023-01-30T09:01:13;94614.47;;;0.86;75.22
56052;BME280;41919;42.648;23.384;2023-01-30T09:03:39;94587.72;;;0.69;74.60
56052;BME280;41919;42.648;23.384;2023-01-30T09:06:05;94575.25;;;0.74;74.13
56052;BME280;41919;42.648;23.384;2023-01-30T09:08:31;94649.66;;;1.41;73.96
56052;BME280;41919;42.648;23.384;2023-01-30T09:11:00;94665.66;;;1.44;72.92
56052;BME280;41919;42.648;23.384;2023-01-30T09:13:26;94657.81;;;1.36;71.52
56052;BME280;41919;42.648;23.384;2023-01-30T09:15:52;94661.88;;;1.39;71.79
56052;BME280;41919;42.648;23.384;2023-01-30T09:18:17;94659.97;;;1.41;70.83
56052;BME280;41919;42.648;23.384;2023-01-30T09:20:43;94659.25;;;1.48;70.42
56052;BME280;41919;42.648;23.384;2023-01-30T09:23:08;94640.75;;;1.35;71.07
56052;BME280;41919;42.648;23.384;2023-01-30T09:25:34;94586.34;;;1.02;70.32
56052;BME280;41919;42.648;23.384;2023-01-30T09:27:59;94660.84;;;1.49;70.15
56052;BME280;41919;42.648;23.384;2023-01-30T09:30:25;94654.03;;;1.40;70.20
56052;BME280;41919;42.648;23.384;2023-01-30T09:32:50;94652.44;;;1.29;71.32
56052;BME280;41919;42.648;23.384;2023-01-30T09:35:16;94641.91;;;1.23;71.73
56052;BME280;41919;42.648;23.384;2023-01-30T09:37:49;94566.91;;;0.62;72.79
56052;BME280;41919;42.648;23.384;2023-01-30T09:40:18;94651.81;;;0.90;73.60
56052;BME280;41919;42.648;23.384;2023-01-30T09:48:32;94642.00;;;1.03;74.08
56052;BME280;41919;42.648;23.384;2023-01-30T09:53:35;94638.41;;;0.86;75.33
56052;BME280;41919;42.648;23.384;2023-01-30T09:56:02;94555.41;;;0.19;75.75
56052;BME280;41919;42.648;23.384;2023-01-30T09:58:41;94543.53;;;0.18;76.02
56052;BME280;41919;42.648;23.384;2023-01-30T10:01:18;94632.59;;;0.56;76.97
56052;BME280;41919;42.648;23.384;2023-01-30T10:04:04;94605.88;;;0.67;76.82
56052;BME280;41919;42.648;23.384;2023-01-30T10:06:35;94579.09;;;0.60;76.11
56052;BME280;41919;42.648;23.384;2023-01-30T10:09:15;94611.03;;;0.95;76.07
56052;BME280;41919;42.648;23.384;2023-01-30T10:26:10;94569.66;;;0.51;77.10
56052;BME280;41919;42.648;23.384;2023-01-30T10:28:42;94579.50;;;0.55;76.65
56052;BME280;41919;42.648;23.384;2023-01-30T10:31:13;94533.28;;;0.08;77.47
56052;BME280;41919;42.648;23.384;2023-01-30T10:34:08;94566.00;;;0.16;78.68
56052;BME280;41919;42.648;23.384;2023-01-30T10:36:51;94556.31;;;0.37;78.51
56052;BME280;41919;42.648;23.384;2023-01-30T10:44:59;94538.81;;;0.51;75.57
56052;BME280;41919;42.648;23.384;2023-01-30T10:50:17;94542.03;;;0.53;75.59
56052;BME280;41919;42.648;23.384;2023-01-30T10:53:06;94531.00;;;0.70;75.41
56052;BME280;41919;42.648;23.384;2023-01-30T10:55:47;94532.31;;;1.02;74.81
56052;BME280;41919;42.648;23.384;2023-01-30T10:58:48;94513.13;;;1.32;73.43
56052;BME280;41919;42.648;23.384;2023-01-30T11:01:36;94498.16;;;1.36;70.97
56052;BME280;41919;42.648;23.384;2023-01-30T11:04:25;94477.56;;;1.36;70.50
56052;BME280;41919;42.648;23.384;2023-01-30T11:06:54;94474.41;;;1.42;70.46
56052;BME280;41919;42.648;23.384;2023-01-30T11:09:21;94355.97;;;0.54;70.85
56052;BME280;41919;42.648;23.384;2023-01-30T11:11:53;94408.63;;;0.86;71.07
56052;BME280;41919;42.648;23.384;2023-01-30T11:14:19;94462.34;;;1.43;79.43
56052;BME280;41919;42.648;23.384;2023-01-30T11:19:13;94450.72;;;1.91;77.17
56052;BME280;41919;42.648;23.384;2023-01-30T11:21:40;94451.69;;;2.24;72.23
56052;BME280;41919;42.648;23.384;2023-01-30T11:24:40;94449.56;;;2.62;69.60
56052;BME280;41919;42.648;23.384;2023-01-30T11:27:20;94376.25;;;2.22;66.84
56052;BME280;41919;42.648;23.384;2023-01-30T11:29:48;94441.78;;;2.46;66.14
56052;BME280;41919;42.648;23.384;2023-01-30T11:32:27;94266.75;;;1.33;65.55
56052;BME280;41919;42.648;23.384;2023-01-30T11:37:32;94420.69;;;2.08;65.47
56052;BME280;41919;42.648;23.384;2023-01-30T11:39:58;94427.78;;;1.80;67.44
56052;BME280;41919;42.648;23.384;2023-01-30T11:42:29;94270.56;;;0.68;68.55
56052;BME280;41919;42.648;23.384;2023-01-30T11:44:58;94402.63;;;1.65;68.42
56052;BME280;41919;42.648;23.384;2023-01-30T11:47:27;94353.66;;;1.13;68.64
56052;BME280;41919;42.648;23.384;2023-01-30T11:49:57;94403.25;;;1.41;68.47
56052;BME280;41919;42.648;23.384;2023-01-30T11:52:29;94330.84;;;0.92;69.43
56052;BME280;41919;42.648;23.384;2023-01-30T11:55:01;94388.06;;;1.30;69.68
56052;BME280;41919;42.648;23.384;2023-01-30T11:57:47;94376.59;;;0.98;70.43
56052;BME280;41919;42.648;23.384;2023-01-30T12:00:19;94351.28;;;0.93;70.85
56052;BME280;41919;42.648;23.384;2023-01-30T12:02:47;94313.81;;;0.73;70.33
56052;BME280;41919;42.648;23.384;2023-01-30T12:05:45;94374.06;;;1.06;71.28
56052;BME280;41919;42.648;23.384;2023-01-30T12:10:57;94275.78;;;0.58;71.53
56052;BME280;41919;42.648;23.384;2023-01-30T12:13:39;94331.38;;;1.22;70.97
56052;BME280;41919;42.648;23.384;2023-01-30T12:16:21;94358.94;;;1.55;70.10
56052;BME280;41919;42.648;23.384;2023-01-30T12:19:04;94338.97;;;1.58;70.04
56052;BME280;41919;42.648;23.384;2023-01-30T12:24:26;94353.66;;;1.65;69.44
56052;BME280;41919;42.648;23.384;2023-01-30T12:26:59;94343.47;;;1.55;68.75
56052;BME280;41919;42.648;23.384;2023-01-30T12:29:30;94331.84;;;1.51;65.89
56052;BME280;41919;42.648;23.384;2023-01-30T12:34:30;94250.75;;;0.87;65.26
56052;BME280;41919;42.648;23.384;2023-01-30T12:49:57;94314.78;;;1.16;65.70
56052;BME280;41919;42.648;23.384;2023-01-30T13:00:35;94289.47;;;1.46;64.67
56052;BME280;41919;42.648;23.384;2023-01-30T13:19:36;94295.41;;;1.38;64.62
56052;BME280;41919;42.648;23.384;2023-01-30T13:22:26;94282.75;;;1.18;65.52
56052;BME280;41919;42.648;23.384;2023-01-30T13:27:57;94211.69;;;0.91;65.75
56052;BME280;41919;42.648;23.384;2023-01-30T13:30:24;94210.28;;;0.97;65.79
56052;BME280;41919;42.648;23.384;2023-01-30T13:32:57;94273.22;;;1.45;66.78
56052;BME280;41919;42.648;23.384;2023-01-30T13:35:28;94265.22;;;1.48;65.75
56052;BME280;41919;42.648;23.384;2023-01-30T13:37:56;94248.09;;;1.31;65.26
56052;BME280;41919;42.648;23.384;2023-01-30T13:40:28;94244.59;;;1.48;65.26
56052;BME280;41919;42.648;23.384;2023-01-30T13:45:49;94182.75;;;0.89;64.66
56052;BME280;41919;42.648;23.384;2023-01-30T13:48:32;94253.91;;;1.41;65.51
56052;BME280;41919;42.648;23.384;2023-01-30T13:51:15;94257.94;;;1.44;64.81
56052;BME280;41919;42.648;23.384;2023-01-30T13:53:48;94230.22;;;1.37;64.57
56052;BME280;41919;42.648;23.384;2023-01-30T13:56:33;94250.41;;;1.50;64.56
56052;BME280;41919;42.648;23.384;2023-01-30T14:07:13;94176.28;;;0.85;65.08
56052;BME280;41919;42.648;23.384;2023-01-30T14:09:42;94258.53;;;1.29;65.63
56052;BME280;41919;42.648;23.384;2023-01-30T14:12:21;94182.88;;;0.88;65.54
56052;BME280;41919;42.648;23.384;2023-01-30T14:15:01;94245.75;;;1.11;65.67
56052;BME280;41919;42.648;23.384;2023-01-30T14:17:27;94075.78;;;-0.34;65.89
56052;BME280;41919;42.648;23.384;2023-01-30T14:20:00;94251.44;;;0.97;66.36
56052;BME280;41919;42.648;23.384;2023-01-30T14:22:49;94259.72;;;0.83;66.30
56052;BME280;41919;42.648;23.384;2023-01-30T14:33:00;94259.75;;;0.38;68.03
56052;BME280;41919;42.648;23.384;2023-01-30T14:35:27;94266.41;;;0.31;68.82
56052;BME280;41919;42.648;23.384;2023-01-30T14:38:09;94252.78;;;0.31;69.80
56052;BME280;41919;42.648;23.384;2023-01-30T14:40:37;94240.63;;;0.41;69.16
56052;BME280;41919;42.648;23.384;2023-01-30T14:45:56;94250.03;;;0.50;67.99
56052;BME280;41919;42.648;23.384;2023-01-30T15:05:05;94171.31;;;-0.13;69.21
56052;BME280;41919;42.648;23.384;2023-01-30T15:07:50;94237.50;;;0.29;69.32
56052;BME280;41919;42.648;23.384;2023-01-30T15:32:20;94170.19;;;-0.28;69.31
56052;BME280;41919;42.648;23.384;2023-01-30T15:34:58;94249.09;;;-0.03;69.74
56052;BME280;41919;42.648;23.384;2023-01-30T15:37:34;94253.03;;;-0.08;70.35
56052;BME280;41919;42.648;23.384;2023-01-30T15:42:54;94256.28;;;0.12;70.05
56052;BME280;41919;42.648;23.384;2023-01-30T15:45:59;94253.63;;;0.04;69.94
56052;BME280;41919;42.648;23.384;2023-01-30T15:51:25;94232.31;;;-0.43;71.08
56052;BME280;41919;42.648;23.384;2023-01-30T15:53:53;94255.16;;;-0.22;71.50
56052;BME280;41919;42.648;23.384;2023-01-30T15:56:23;94250.34;;;-0.07;71.08
56052;BME280;41919;42.648;23.384;2023-01-30T15:58:49;94239.13;;;-0.06;70.86
56052;BME280;41919;42.648;23.384;2023-01-30T16:01:20;94242.47;;;0.13;70.00
56052;BME280;41919;42.648;23.384;2023-01-30T16:03:47;94159.41;;;-0.50;69.39
56052;BME280;41919;42.648;23.384;2023-01-30T16:06:31;94170.47;;;-0.31;69.54